Time,TemperatureF,DewpointF,PressureIn,WindDirection,WindDirectionDegrees,WindSpeedMPH,WindSpeedGustMPH,Humidity,HourlyPrecipIn,Conditions,Clouds,dailyrainin,SoftwareType,DateUTC
2013-05-17 00:09:00,41.2,28.0,29.40,SSW,197,0.0,1.0,60,0.00,,,0.00,weatherlink.com 1.10,2013-05-17 08:09:00,
2013-05-17 00:24:00,40.6,28.0,29.40,ENE,70,0.0,1.0,61,0.00,,,0.00,weatherlink.com 1.10,2013-05-17 08:24:00,
2013-05-17 00:39:00,40.6,28.0,29.40,East,96,0.0,1.0,61,0.00,,,0.00,weatherlink.com 1.10,2013-05-17 08:39:00,
2013-05-17 00:54:00,40.0,28.0,29.40,East,95,0.0,0.0,63,0.00,,,0.00,weatherlink.com 1.10,2013-05-17 08:54:00,
2013-05-17 01:09:00,39.7,28.0,29.39,North,352,0.0,0.0,64,0.00,,,0.00,weatherlink.com 1.10,2013-05-17 09:09:00,
2013-05-17 01:24:00,40.6,29.0,29.39,NNW,334,1.0,4.0,64,0.00,,,0.00,weatherlink.com 1.10,2013-05-17 09:24:00,
2013-05-17 01:39:00,40.7,30.0,29.39,NW,308,2.0,5.0,65,0.00,,,0.00,weatherlink.com 1.10,2013-05-17 09:39:00,
2013-05-17 01:54:00,40.3,29.0,29.39,NNE,18,0.0,1.0,65,0.00,,,0.00,weatherlink.com 1.10,2013-05-17 09:54:00,
2013-05-17 02:09:00,39.8,30.0,29.39,NNE,27,0.0,1.0,67,0.00,,,0.00,weatherlink.com 1.10,2013-05-17 10:09:00,
2013-05-17 02:24:00,39.5,30.0,29.39,NNW,340,1.0,3.0,68,0.00,,,0.00,weatherlink.com 1.10,2013-05-17 10:24:00,
2013-05-17 02:39:00,39.0,30.0,29.38,NNE,25,0.0,1.0,69,0.00,,,0.00,weatherlink.com 1.10,2013-05-17 10:39:00,
2013-05-17 02:54:00,38.7,29.0,29.38,ENE,71,0.0,2.0,69,0.00,,,0.00,weatherlink.com 1.10,2013-05-17 10:54:00,
2013-05-17 03:09:00,38.4,29.0,29.38,North,349,0.0,1.0,70,0.00,,,0.00,weatherlink.com 1.10,2013-05-17 11:09:00,
2013-05-17 03:24:00,38.3,29.0,29.38,WNW,297,0.0,1.0,70,0.00,,,0.00,weatherlink.com 1.10,2013-05-17 11:24:00,
2013-05-17 03:39:00,37.1,29.0,29.38,WNW,297,0.0,0.0,73,0.00,,,0.00,weatherlink.com 1.10,2013-05-17 11:39:00,
2013-05-17 03:54:00,37.1,29.0,29.37,West,271,0.0,1.0,72,0.00,,,0.00,weatherlink.com 1.10,2013-05-17 11:54:00,
2013-05-17 04:10:00,38.2,29.0,29.37,NE,56,1.0,3.0,69,0.00,,,0.00,weatherlink.com 1.10,2013-05-17 12:10:00,
2013-05-17 04:25:00,38.7,29.0,29.37,ENE,78,0.0,1.0,68,0.00,,,0.00,weatherlink.com 1.10,2013-05-17 12:25:00,
2013-05-17 04:40:00,37.7,29.0,29.36,West,265,1.0,2.0,70,0.00,,,0.00,weatherlink.com 1.10,2013-05-17 12:40:00,
2013-05-17 04:55:00,37.2,29.0,29.36,WSW,256,0.0,1.0,71,0.00,,,0.00,weatherlink.com 1.10,2013-05-17 12:55:00,
2013-05-17 05:10:00,37.8,29.0,29.37,WNW,302,0.0,3.0,70,0.00,,,0.00,weatherlink.com 1.10,2013-05-17 13:10:00,
2013-05-17 05:25:00,38.3,29.0,29.37,NE,42,0.0,0.0,69,0.00,,,0.00,weatherlink.com 1.10,2013-05-17 13:25:00,
2013-05-17 05:40:00,38.5,29.0,29.38,West,271,0.0,2.0,68,0.00,,,0.00,weatherlink.com 1.10,2013-05-17 13:40:00,
2013-05-17 05:55:00,37.3,29.0,29.38,SW,219,0.0,0.0,71,0.00,,,0.00,weatherlink.com 1.10,2013-05-17 13:55:00,
2013-05-17 06:10:00,36.9,29.0,29.38,SW,231,0.0,1.0,73,0.00,,,0.00,weatherlink.com 1.10,2013-05-17 14:10:00,
2013-05-17 06:25:00,36.1,29.0,29.38,WNW,291,0.0,1.0,76,0.00,,,0.00,weatherlink.com 1.10,2013-05-17 14:25:00,
2013-05-17 06:40:00,35.7,29.0,29.38,WNW,290,0.0,0.0,77,0.00,,,0.00,weatherlink.com 1.10,2013-05-17 14:40:00,
2013-05-17 06:55:00,34.7,29.0,29.38,SE,131,0.0,0.0,78,0.00,,,0.00,weatherlink.com 1.10,2013-05-17 14:55:00,
2013-05-17 07:10:00,34.3,29.0,29.39,SE,135,0.0,1.0,80,0.00,,,0.00,weatherlink.com 1.10,2013-05-17 15:10:00,
2013-05-17 07:25:00,34.6,30.0,29.39,WSW,245,1.0,1.0,82,0.00,,,0.00,weatherlink.com 1.10,2013-05-17 15:25:00,
2013-05-17 07:40:00,34.9,30.0,29.39,West,281,1.0,6.0,81,0.00,,,0.00,weatherlink.com 1.10,2013-05-17 15:40:00,
2013-05-17 07:55:00,35.5,30.0,29.39,West,273,1.0,4.0,80,0.00,,,0.00,weatherlink.com 1.10,2013-05-17 15:55:00,
2013-05-17 08:10:00,35.5,30.0,29.39,SW,235,3.0,5.0,80,0.00,,,0.00,weatherlink.com 1.10,2013-05-17 16:10:00,
2013-05-17 08:25:00,35.2,30.0,29.39,WSW,256,6.0,8.0,82,0.00,,,0.00,weatherlink.com 1.10,2013-05-17 16:25:00,
2013-05-17 08:40:00,34.8,30.0,29.40,West,281,1.0,6.0,83,0.00,,,0.00,weatherlink.com 1.10,2013-05-17 16:40:00,
2013-05-17 08:55:00,34.4,30.0,29.40,NW,317,4.0,8.0,84,0.00,,,0.00,weatherlink.com 1.10,2013-05-17 16:55:00,
2013-05-17 09:10:00,34.4,30.0,29.41,West,264,3.0,9.0,85,0.00,,,0.00,weatherlink.com 1.10,2013-05-17 17:10:00,
2013-05-17 09:40:00,33.6,30.0,29.41,West,259,5.0,8.0,88,0.00,,,0.00,weatherlink.com 1.10,2013-05-17 17:40:00,
2013-05-17 09:55:00,33.1,31.0,29.41,WSW,238,1.0,6.0,91,0.00,,,0.00,weatherlink.com 1.10,2013-05-17 17:55:00,
2013-05-17 10:10:00,32.9,31.0,29.41,WNW,283,3.0,6.0,92,0.00,,,0.00,weatherlink.com 1.10,2013-05-17 18:10:00,
2013-05-17 10:25:00,32.8,31.0,29.42,West,259,0.0,6.0,92,0.00,,,0.00,weatherlink.com 1.10,2013-05-17 18:25:00,
2013-05-17 10:40:00,32.4,30.0,29.42,NW,305,1.0,7.0,92,0.00,,,0.00,weatherlink.com 1.10,2013-05-17 18:40:00,
2013-05-17 10:55:00,32.4,31.0,29.43,WSW,249,1.0,6.0,93,0.00,,,0.00,weatherlink.com 1.10,2013-05-17 18:55:00,
2013-05-17 11:10:00,32.4,31.0,29.43,NNE,19,0.0,5.0,93,0.00,,,0.00,weatherlink.com 1.10,2013-05-17 19:10:00,
2013-05-17 11:25:00,32.5,31.0,29.43,NW,321,2.0,6.0,94,0.00,,,0.00,weatherlink.com 1.10,2013-05-17 19:25:00,
2013-05-17 11:41:00,32.3,31.0,29.44,SSW,206,1.0,8.0,94,0.00,,,0.00,weatherlink.com 1.10,2013-05-17 19:41:00,
2013-05-17 11:56:00,32.3,31.0,29.44,WSW,239,1.0,7.0,94,0.00,,,0.00,weatherlink.com 1.10,2013-05-17 19:56:00,
2013-05-17 12:11:00,32.2,31.0,29.44,SW,214,3.0,7.0,94,0.01,,,0.01,weatherlink.com 1.10,2013-05-17 20:11:00,
2013-05-17 12:26:00,32.0,31.0,29.45,West,266,7.0,11.0,94,0.02,,,0.02,weatherlink.com 1.10,2013-05-17 20:26:00,
2013-05-17 12:41:00,32.0,30.0,29.45,NNW,330,4.0,10.0,93,0.02,,,0.02,weatherlink.com 1.10,2013-05-17 20:41:00,
2013-05-17 12:56:00,32.5,31.0,29.46,West,271,4.0,11.0,94,0.03,,,0.03,weatherlink.com 1.10,2013-05-17 20:56:00,
2013-05-17 13:11:00,32.6,31.0,29.46,WSW,246,4.0,8.0,93,0.02,,,0.03,weatherlink.com 1.10,2013-05-17 21:11:00,
2013-05-17 13:26:00,32.6,31.0,29.46,WSW,250,7.0,9.0,92,0.02,,,0.04,weatherlink.com 1.10,2013-05-17 21:26:00,
2013-05-17 13:41:00,32.7,31.0,29.47,WSW,256,4.0,9.0,92,0.02,,,0.04,weatherlink.com 1.10,2013-05-17 21:41:00,
2013-05-17 13:56:00,33.2,31.0,29.47,West,267,3.0,7.0,92,0.01,,,0.04,weatherlink.com 1.10,2013-05-17 21:56:00,
2013-05-17 14:11:00,33.3,30.0,29.47,West,273,5.0,9.0,89,0.01,,,0.04,weatherlink.com 1.10,2013-05-17 22:11:00,
2013-05-17 14:26:00,33.6,30.0,29.48,WSW,242,3.0,10.0,87,0.00,,,0.04,weatherlink.com 1.10,2013-05-17 22:26:00,
2013-05-17 14:41:00,34.1,31.0,29.48,NW,325,5.0,7.0,87,0.00,,,0.04,weatherlink.com 1.10,2013-05-17 22:41:00,
2013-05-17 14:56:00,33.6,30.0,29.49,SSW,208,4.0,12.0,85,0.00,,,0.04,weatherlink.com 1.10,2013-05-17 22:56:00,
2013-05-17 15:11:00,32.7,29.0,29.50,West,267,9.0,9.0,86,0.00,,,0.04,weatherlink.com 1.10,2013-05-17 23:11:00,
2013-05-17 15:26:00,32.7,29.0,29.50,West,281,2.0,5.0,87,0.00,,,0.04,weatherlink.com 1.10,2013-05-17 23:26:00,
2013-05-17 15:41:00,32.3,29.0,29.51,WSW,240,5.0,11.0,87,0.00,,,0.04,weatherlink.com 1.10,2013-05-17 23:41:00,
2013-05-17 15:56:00,31.8,28.0,29.51,WNW,295,4.0,10.0,87,0.00,,,0.04,weatherlink.com 1.10,2013-05-17 23:56:00,
2013-05-17 16:11:00,31.4,29.0,29.51,West,278,4.0,10.0,89,0.00,,,0.04,weatherlink.com 1.10,2013-05-18 00:11:00,
2013-05-17 16:26:00,30.9,28.0,29.52,NW,307,4.0,10.0,88,0.00,,,0.04,weatherlink.com 1.10,2013-05-18 00:26:00,
2013-05-17 16:41:00,31.1,28.0,29.52,South,179,4.0,10.0,88,0.00,,,0.04,weatherlink.com 1.10,2013-05-18 00:41:00,
2013-05-17 16:56:00,30.9,28.0,29.52,West,260,3.0,9.0,87,0.00,,,0.04,weatherlink.com 1.10,2013-05-18 00:56:00,
2013-05-17 17:11:00,30.7,27.0,29.53,WSW,255,2.0,7.0,87,0.00,,,0.04,weatherlink.com 1.10,2013-05-18 01:11:00,
2013-05-17 17:26:00,30.6,27.0,29.53,WSW,256,6.0,10.0,87,0.00,,,0.04,weatherlink.com 1.10,2013-05-18 01:26:00,
2013-05-17 17:41:00,30.2,27.0,29.53,WNW,283,5.0,10.0,88,0.00,,,0.04,weatherlink.com 1.10,2013-05-18 01:41:00,
2013-05-17 17:56:00,30.5,28.0,29.53,WNW,290,3.0,8.0,89,0.00,,,0.04,weatherlink.com 1.10,2013-05-18 01:56:00,
2013-05-17 18:11:00,30.3,27.0,29.53,NW,308,2.0,8.0,87,0.00,,,0.04,weatherlink.com 1.10,2013-05-18 02:11:00,
2013-05-17 18:26:00,30.4,27.0,29.54,WSW,242,3.0,8.0,88,0.00,,,0.04,weatherlink.com 1.10,2013-05-18 02:26:00,
2013-05-17 18:41:00,30.1,27.0,29.54,West,271,1.0,7.0,88,0.00,,,0.04,weatherlink.com 1.10,2013-05-18 02:41:00,
2013-05-17 18:56:00,30.4,27.0,29.55,West,264,3.0,5.0,88,0.00,,,0.04,weatherlink.com 1.10,2013-05-18 02:56:00,
2013-05-17 19:11:00,30.2,27.0,29.55,WNW,291,3.0,6.0,88,0.00,,,0.04,weatherlink.com 1.10,2013-05-18 03:11:00,
2013-05-17 19:26:00,29.8,27.0,29.56,NW,314,3.0,9.0,88,0.00,,,0.04,weatherlink.com 1.10,2013-05-18 03:26:00,
2013-05-17 19:41:00,29.5,26.0,29.56,WNW,284,4.0,8.0,87,0.00,,,0.04,weatherlink.com 1.10,2013-05-18 03:41:00,
2013-05-17 19:57:00,29.5,26.0,29.57,West,267,1.0,7.0,87,0.00,,,0.04,weatherlink.com 1.10,2013-05-18 03:57:00,
2013-05-17 20:12:00,29.4,26.0,29.57,West,273,2.0,10.0,86,0.00,,,0.04,weatherlink.com 1.10,2013-05-18 04:12:00,
2013-05-17 20:27:00,29.2,26.0,29.57,WNW,287,3.0,7.0,86,0.00,,,0.04,weatherlink.com 1.10,2013-05-18 04:27:00,
2013-05-17 20:42:00,28.6,25.0,29.57,WSW,253,5.0,8.0,86,0.00,,,0.04,weatherlink.com 1.10,2013-05-18 04:42:00,
2013-05-17 20:57:00,28.2,25.0,29.58,West,269,3.0,9.0,87,0.00,,,0.04,weatherlink.com 1.10,2013-05-18 04:57:00,
2013-05-17 21:12:00,27.7,25.0,29.59,NW,305,5.0,11.0,88,0.00,,,0.04,weatherlink.com 1.10,2013-05-18 05:12:00,
2013-05-17 21:27:00,27.3,25.0,29.59,WNW,291,6.0,10.0,90,0.00,,,0.04,weatherlink.com 1.10,2013-05-18 05:27:00,
2013-05-17 21:42:00,26.7,24.0,29.60,WNW,302,6.0,8.0,90,0.00,,,0.04,weatherlink.com 1.10,2013-05-18 05:42:00,
2013-05-17 21:57:00,26.3,24.0,29.60,West,280,3.0,8.0,91,0.00,,,0.04,weatherlink.com 1.10,2013-05-18 05:57:00,
2013-05-17 22:12:00,25.7,24.0,29.61,WNW,285,8.0,9.0,91,0.00,,,0.04,weatherlink.com 1.10,2013-05-18 06:12:00,
2013-05-17 22:27:00,25.5,23.0,29.61,NNW,336,6.0,11.0,91,0.00,,,0.04,weatherlink.com 1.10,2013-05-18 06:27:00,
2013-05-17 22:42:00,25.0,23.0,29.62,East,81,4.0,9.0,91,0.00,,,0.04,weatherlink.com 1.10,2013-05-18 06:42:00,
2013-05-17 22:57:00,24.7,23.0,29.63,West,278,3.0,9.0,92,0.00,,,0.04,weatherlink.com 1.10,2013-05-18 06:57:00,
2013-05-17 23:12:00,24.5,23.0,29.63,WSW,241,2.0,8.0,92,0.00,,,0.04,weatherlink.com 1.10,2013-05-18 07:12:00,
2013-05-17 23:27:00,24.3,22.0,29.63,West,273,3.0,10.0,92,0.00,,,0.04,weatherlink.com 1.10,2013-05-18 07:27:00,
2013-05-17 23:42:00,24.0,22.0,29.63,WSW,249,4.0,10.0,92,0.00,,,0.04,weatherlink.com 1.10,2013-05-18 07:42:00,
2013-05-17 23:57:00,23.8,22.0,29.64,WNW,284,2.0,10.0,91,0.00,,,0.04,weatherlink.com 1.10,2013-05-18 07:57:00,